createdAt,value
2022-09-15T00:02:13.555Z,97208.25
2022-09-15T00:04:40.069Z,97216.16
2022-09-15T00:07:06.628Z,97224.78
2022-09-15T00:09:33.166Z,97220.66
2022-09-15T00:11:59.614Z,97211.19
2022-09-15T00:14:26.081Z,97211.28
2022-09-15T00:16:52.593Z,97218.06
2022-09-15T00:19:19.056Z,97209.50
2022-09-15T00:21:45.495Z,97208.59
2022-09-15T00:24:12.127Z,97217.09
2022-09-15T00:26:38.773Z,97217.72
2022-09-15T00:29:05.662Z,97224.38
2022-09-15T00:31:32.784Z,97207.69
2022-09-15T00:34:04.195Z,97202.50
2022-09-15T00:36:31.061Z,97203.25
2022-09-15T00:38:57.897Z,97203.94
2022-09-15T00:41:24.940Z,97204.66
2022-09-15T00:43:57.965Z,97203.50
2022-09-15T00:46:36.051Z,97193.84
2022-09-15T00:49:09.489Z,97202.34
2022-09-15T00:51:43.233Z,97196.09
2022-09-15T00:54:16.157Z,97202.97
2022-09-15T00:56:44.114Z,97196.00
2022-09-15T00:59:17.572Z,97195.06
2022-09-15T01:01:47.094Z,97185.47
2022-09-15T01:04:18.445Z,97189.63
2022-09-15T01:06:55.542Z,97186.06
2022-09-15T01:10:12.364Z,97192.94
2022-09-15T01:13:09.134Z,97192.94
2022-09-15T01:16:11.118Z,97189.63
2022-09-15T01:19:32.252Z,97192.22
2022-09-15T01:22:37.705Z,97186.28
2022-09-15T01:25:29.854Z,97193.16
2022-09-15T01:28:14.635Z,97191.50
2022-09-15T01:30:48.250Z,97179.44
2022-09-15T01:33:29.451Z,97183.91
2022-09-15T01:36:05.025Z,97181.94
2022-09-15T01:38:54.579Z,97178.25
2022-09-15T01:41:29.440Z,97177.66
2022-09-15T01:44:07.941Z,97184.88
2022-09-15T01:46:40.954Z,97178.00
2022-09-15T01:49:11.199Z,97177.25
2022-09-15T01:51:40.214Z,97179.84
2022-09-15T01:54:07.670Z,97174.66
2022-09-15T01:56:36.928Z,97176.44
2022-09-15T01:59:03.530Z,97173.50
2022-09-15T02:02:01.710Z,97169.25
2022-09-15T02:04:36.766Z,97165.91
2022-09-15T02:07:08.245Z,97166.03
2022-09-15T02:09:46.929Z,97167.94
2022-09-15T02:12:22.996Z,97167.06
2022-09-15T02:14:59.444Z,97158.44
2022-09-15T02:17:29.222Z,97156.78
2022-09-15T02:20:10.184Z,97156.78
2022-09-15T02:22:41.012Z,97158.56
2022-09-15T02:25:13.821Z,97151.56
2022-09-15T02:27:45.850Z,97150.53
2022-09-15T02:30:15.876Z,97142.84
2022-09-15T02:32:58.051Z,97147.22
2022-09-15T02:35:26.821Z,97149.81
2022-09-15T02:37:54.586Z,97147.09
2022-09-15T02:40:22.497Z,97149.72
2022-09-15T02:43:01.041Z,97147.00
2022-09-15T02:45:29.247Z,97145.31
2022-09-15T02:47:57.034Z,97147.94
2022-09-15T02:50:26.721Z,97142.63
2022-09-15T02:52:54.939Z,97129.50
2022-09-15T02:55:21.592Z,97126.88
2022-09-15T02:57:48.120Z,97140.72
2022-09-15T03:00:17.297Z,97131.97
2022-09-15T03:02:46.921Z,97127.63
2022-09-15T03:05:14.981Z,97127.50
2022-09-15T03:07:41.532Z,97127.63
2022-09-15T03:10:10.028Z,97121.44
2022-09-15T03:12:47.022Z,97128.31
2022-09-15T03:15:16.310Z,97126.53
2022-09-15T03:17:43.714Z,97120.75
2022-09-15T03:20:12.848Z,97122.31
2022-09-15T03:22:39.407Z,97118.84
2022-09-15T03:25:07.319Z,97116.13
2022-09-15T03:27:35.397Z,97116.47
2022-09-15T03:30:01.978Z,97114.63
2022-09-15T03:32:28.499Z,97115.53
2022-09-15T03:34:58.361Z,97119.91
2022-09-15T03:37:25.846Z,97112.22
2022-09-15T03:39:52.304Z,97116.59
2022-09-15T03:42:19.655Z,97111.28
2022-09-15T03:44:46.125Z,97112.00
2022-09-15T03:47:12.558Z,97105.38
2022-09-15T03:49:39.039Z,97101.78
2022-09-15T03:52:05.522Z,97103.00
2022-09-15T03:54:31.996Z,97100.50
2022-09-15T03:56:58.884Z,97094.44
2022-09-15T03:59:25.387Z,97093.63
2022-09-15T04:01:51.966Z,97095.38
2022-09-15T04:04:18.599Z,97088.53
2022-09-15T04:06:45.180Z,97098.94
2022-09-15T04:09:11.775Z,97092.78
2022-09-15T04:11:39.447Z,97097.78
2022-09-15T04:14:05.886Z,97094.22
2022-09-15T04:16:32.337Z,97099.19
2022-09-15T04:18:58.797Z,97101.13
2022-09-15T04:21:26.683Z,97106.81
2022-09-15T04:23:54.021Z,97101.09
2022-09-15T04:26:28.691Z,97099.44
2022-09-15T04:28:55.115Z,97090.56
2022-09-15T04:31:21.648Z,97098.88
2022-09-15T04:33:48.182Z,97090.34
2022-09-15T04:36:18.204Z,97093.56
2022-09-15T04:38:45.664Z,97093.88
2022-09-15T04:41:14.105Z,97086.41
2022-09-15T04:43:43.024Z,97085.81
2022-09-15T04:46:10.114Z,97087.56
2022-09-15T04:48:37.722Z,97084.16
2022-09-15T04:51:06.737Z,97081.44
2022-09-15T04:53:33.152Z,97079.56
2022-09-15T04:56:04.700Z,97079.13
2022-09-15T04:58:31.763Z,97082.88
2022-09-15T05:00:58.172Z,97085.38
2022-09-15T05:03:24.676Z,97084.53
2022-09-15T05:05:51.311Z,97087.50
2022-09-15T05:08:17.747Z,97093.56
2022-09-15T05:10:44.118Z,97084.38
2022-09-15T05:13:10.571Z,97084.25
2022-09-15T05:15:36.953Z,97081.75
2022-09-15T05:18:03.544Z,97092.38
2022-09-15T05:20:29.960Z,97086.22
2022-09-15T05:22:56.321Z,97081.66
2022-09-15T05:25:22.703Z,97084.38
2022-09-15T05:27:49.401Z,97085.28
2022-09-15T05:30:36.743Z,97082.69
2022-09-15T05:33:02.702Z,97089.75
2022-09-15T05:35:29.366Z,97094.66
2022-09-15T05:37:55.815Z,97093.09
2022-09-15T05:40:22.731Z,97093.09
2022-09-15T05:42:49.214Z,97096.28
2022-09-15T05:45:15.905Z,97096.19
2022-09-15T05:47:42.316Z,97095.47
2022-09-15T05:50:09.228Z,97090.78
2022-09-15T05:52:35.909Z,97089.13
2022-09-15T05:55:03.050Z,97087.44
2022-09-15T05:57:29.431Z,97087.25
2022-09-15T05:59:55.824Z,97089.59
2022-09-15T06:02:22.346Z,97080.88
2022-09-15T06:04:48.762Z,97079.44
2022-09-15T06:07:16.500Z,97081.69
2022-09-15T06:09:42.912Z,97080.88
2022-09-15T06:12:09.384Z,97075.66
2022-09-15T06:14:35.800Z,97081.78
2022-09-15T06:17:02.431Z,97078.97
2022-09-15T06:19:28.825Z,97079.69
2022-09-15T06:21:55.259Z,97081.13
2022-09-15T06:24:22.048Z,97081.38
2022-09-15T06:26:48.490Z,97088.81
2022-09-15T06:29:14.929Z,97091.53
2022-09-15T06:31:41.604Z,97107.28
2022-09-15T06:34:09.385Z,97116.16
2022-09-15T06:36:37.693Z,97142.28
2022-09-15T06:39:04.201Z,97129.44
2022-09-15T06:41:52.457Z,97135.75
2022-09-15T06:44:17.608Z,97133.34
2022-09-15T06:46:43.954Z,97145.41
2022-09-15T06:49:10.411Z,97163.97
2022-09-15T06:51:36.834Z,97175.03
2022-09-15T06:54:04.442Z,97187.94
2022-09-15T06:56:34.465Z,97195.34
2022-09-15T06:59:03.905Z,97205.00
2022-09-15T07:01:32.388Z,97208.56
2022-09-15T07:04:01.251Z,97224.38
2022-09-15T07:06:29.670Z,97228.53
2022-09-15T07:08:57.079Z,97208.69
2022-09-15T07:11:23.464Z,97185.19
2022-09-15T07:13:50.659Z,97182.56
2022-09-15T07:16:19.002Z,97183.63
2022-09-15T07:18:46.443Z,97192.13
2022-09-15T07:21:15.064Z,97208.56
2022-09-15T07:23:42.896Z,97213.66
2022-09-15T07:26:15.678Z,97217.38
2022-09-15T07:28:44.367Z,97219.72
2022-09-15T07:31:13.742Z,97220.41
2022-09-15T07:33:40.241Z,97217.94
2022-09-15T07:36:08.210Z,97227.28
2022-09-15T07:38:38.594Z,97234.13
2022-09-15T07:41:06.811Z,97230.19
2022-09-15T07:43:33.220Z,97233.63
2022-09-15T07:46:00.579Z,97250.97
2022-09-15T07:48:27.610Z,97255.13
2022-09-15T07:50:54.086Z,97255.75
2022-09-15T07:53:21.065Z,97257.31
2022-09-15T07:55:54.498Z,97260.94
2022-09-15T07:58:21.787Z,97255.75
2022-09-15T08:00:49.008Z,97256.56
2022-09-15T08:03:23.736Z,97258.59
2022-09-15T08:05:58.564Z,97257.00
2022-09-15T08:08:25.854Z,97264.25
2022-09-15T08:10:58.498Z,97274.66
2022-09-15T08:13:31.216Z,97275.53
2022-09-15T08:16:07.619Z,97288.34
2022-09-15T08:18:34.743Z,97299.03
2022-09-15T08:21:07.644Z,97312.19
2022-09-15T08:23:34.123Z,97313.44
2022-09-15T08:26:00.914Z,97317.97
2022-09-15T08:28:27.847Z,97310.78
2022-09-15T08:30:59.929Z,97316.84
2022-09-15T08:33:27.577Z,97311.66
2022-09-15T08:35:55.564Z,97323.31
2022-09-15T08:38:22.007Z,97320.91
2022-09-15T08:40:48.776Z,97315.47
2022-09-15T08:43:25.147Z,97319.31
2022-09-15T08:46:02.549Z,97320.84
2022-09-15T08:48:41.266Z,97327.06
2022-09-15T08:51:16.070Z,97329.47
2022-09-15T08:53:47.935Z,97326.66
2022-09-15T08:56:18.084Z,97333.78
2022-09-15T08:58:48.621Z,97341.81
2022-09-15T09:01:47.446Z,97343.75
2022-09-15T09:04:32.550Z,97341.44
2022-09-15T09:07:23.642Z,97349.75
2022-09-15T09:10:01.572Z,97356.91
2022-09-15T09:13:07.260Z,97356.09
2022-09-15T09:15:45.851Z,97364.59
2022-09-15T09:18:46.812Z,97367.13
2022-09-15T09:21:13.124Z,97357.59
2022-09-15T09:23:50.645Z,97360.53
2022-09-15T09:26:17.786Z,97365.53
2022-09-15T09:28:58.537Z,97367.78
2022-09-15T09:31:27.184Z,97362.09
2022-09-15T09:34:02.915Z,97361.97
2022-09-15T09:36:29.317Z,97351.50
2022-09-15T09:38:56.267Z,97365.75
2022-09-15T09:41:35.691Z,97366.34
2022-09-15T09:44:11.090Z,97369.47
2022-09-15T09:46:37.632Z,97371.31
2022-09-15T09:49:23.166Z,97371.66
2022-09-15T09:51:54.267Z,97369.69
2022-09-15T09:54:27.203Z,97367.00
2022-09-15T09:56:55.278Z,97367.41
2022-09-15T09:59:47.920Z,97374.44
2022-09-15T10:02:18.958Z,97368.53
2022-09-15T10:05:06.742Z,97378.66
2022-09-15T10:07:34.644Z,97369.50
2022-09-15T10:10:02.272Z,97378.22
2022-09-15T10:12:32.484Z,97376.59
2022-09-15T10:15:05.596Z,97374.69
2022-09-15T10:17:47.370Z,97373.56
2022-09-15T10:20:32.712Z,97370.94
2022-09-15T10:23:17.630Z,97379.22
2022-09-15T10:25:58.455Z,97378.78
2022-09-15T10:28:27.349Z,97380.75
2022-09-15T10:31:10.852Z,97384.16
2022-09-15T10:33:40.313Z,97386.28
2022-09-15T10:36:20.801Z,97380.22
2022-09-15T10:38:49.883Z,97380.00
2022-09-15T10:41:27.862Z,97380.53
2022-09-15T10:44:16.023Z,97378.41
2022-09-15T10:47:20.107Z,97383.16
2022-09-15T10:50:15.251Z,97390.03
2022-09-15T10:52:56.922Z,97394.31
2022-09-15T10:55:51.617Z,97389.78
2022-09-15T10:58:32.157Z,97382.78
2022-09-15T11:01:20.588Z,97384.16
2022-09-15T11:04:06.755Z,97387.28
2022-09-15T11:07:04.752Z,97385.16
2022-09-15T11:09:38.564Z,97375.75
2022-09-15T11:12:17.109Z,97376.38
2022-09-15T11:15:02.203Z,97386.44
2022-09-15T11:17:39.476Z,97374.53
2022-09-15T11:20:14.189Z,97377.72
2022-09-15T11:22:53.076Z,97385.66
2022-09-15T11:25:26.365Z,97378.88
2022-09-15T11:28:04.558Z,97382.56
2022-09-15T11:30:47.658Z,97386.16
2022-09-15T11:33:22.807Z,97381.00
2022-09-15T11:36:22.894Z,97387.94
2022-09-15T11:38:49.501Z,97389.41
2022-09-15T11:41:40.717Z,97388.81
2022-09-15T11:44:18.413Z,97383.38
2022-09-15T11:47:03.109Z,97391.59
2022-09-15T11:49:40.704Z,97399.34
2022-09-15T11:52:26.820Z,97391.38
2022-09-15T11:55:03.633Z,97395.03
2022-09-15T11:58:16.345Z,97394.88
2022-09-15T12:00:52.526Z,97395.25
2022-09-15T12:03:36.144Z,97390.97
2022-09-15T12:06:21.615Z,97388.25
2022-09-15T12:09:00.795Z,97389.66
2022-09-15T12:11:31.000Z,97394.41
2022-09-15T12:13:59.892Z,97401.66
2022-09-15T12:16:28.081Z,97406.28
2022-09-15T12:19:14.518Z,97404.28
2022-09-15T12:22:01.814Z,97403.22
2022-09-15T12:24:57.819Z,97396.91
2022-09-15T12:27:27.276Z,97406.28
2022-09-15T12:29:58.614Z,97405.00
2022-09-15T12:32:33.151Z,97412.81
2022-09-15T12:35:07.941Z,97413.53
2022-09-15T12:37:57.821Z,97414.00
2022-09-15T12:40:30.305Z,97416.97
2022-09-15T12:42:57.532Z,97407.13
2022-09-15T12:45:27.650Z,97406.50
2022-09-15T12:48:19.186Z,97415.28
2022-09-15T12:51:03.132Z,97413.13
2022-09-15T12:56:08.248Z,97414.91
2022-09-15T12:58:40.689Z,97419.53
2022-09-15T13:01:19.604Z,97427.97
2022-09-15T13:03:46.320Z,97424.66
2022-09-15T13:06:16.264Z,97430.44
2022-09-15T13:08:48.427Z,97432.25
2022-09-15T13:11:20.381Z,97433.53
2022-09-15T13:14:06.811Z,97433.72
2022-09-15T13:16:51.685Z,97424.22
2022-09-15T13:19:30.873Z,97423.97
2022-09-15T13:22:05.024Z,97425.66
2022-09-15T13:24:57.809Z,97421.38
2022-09-15T13:27:40.704Z,97421.88
2022-09-15T13:30:23.545Z,97419.66
2022-09-15T13:33:12.751Z,97415.41
2022-09-15T13:35:58.510Z,97420.28
2022-09-15T13:38:46.333Z,97427.66
2022-09-15T13:41:27.196Z,97418.50
2022-09-15T13:44:15.077Z,97418.16
2022-09-15T13:46:56.932Z,97413.44
2022-09-15T13:49:38.710Z,97409.25
2022-09-15T13:52:23.356Z,97408.66
2022-09-15T13:55:16.584Z,97406.50
2022-09-15T14:00:43.314Z,97407.88
2022-09-15T14:03:17.359Z,97412.72
2022-09-15T14:05:45.010Z,97416.63
2022-09-15T14:08:22.408Z,97415.88
2022-09-15T14:10:55.412Z,97409.50
2022-09-15T14:13:24.927Z,97413.78
2022-09-15T14:16:03.685Z,97409.97
2022-09-15T14:18:40.464Z,97399.06
2022-09-15T14:21:06.946Z,97406.31
2022-09-15T14:23:33.446Z,97411.69
2022-09-15T14:26:02.331Z,97413.47
2022-09-15T14:28:32.365Z,97409.00
2022-09-15T14:31:02.857Z,97414.84
2022-09-15T14:33:38.340Z,97419.00
2022-09-15T14:36:28.931Z,97413.44
2022-09-15T14:39:16.817Z,97420.59
2022-09-15T14:41:43.996Z,97424.72
2022-09-15T14:47:25.228Z,97424.81
2022-09-15T14:50:07.270Z,97424.06
2022-09-15T14:52:38.082Z,97423.25
2022-09-15T14:55:11.082Z,97423.88
2022-09-15T14:57:41.544Z,97419.09
2022-09-15T15:00:14.123Z,97420.63
2022-09-15T15:02:59.076Z,97414.47
2022-09-15T15:05:30.922Z,97418.38
2022-09-15T15:07:57.499Z,97425.50
2022-09-15T15:10:34.863Z,97424.19
2022-09-15T15:13:07.779Z,97420.88
2022-09-15T15:15:36.898Z,97433.78
2022-09-15T15:18:06.284Z,97422.84
2022-09-15T15:20:32.879Z,97432.09
2022-09-15T15:23:16.768Z,97435.03
2022-09-15T15:25:43.801Z,97425.91
2022-09-15T15:28:29.112Z,97436.31
2022-09-15T15:31:06.647Z,97443.22
2022-09-15T15:33:33.527Z,97439.88
2022-09-15T15:36:22.325Z,97437.50
2022-09-15T15:38:52.926Z,97436.41
2022-09-15T15:41:31.359Z,97441.03
2022-09-15T15:44:08.907Z,97455.22
2022-09-15T15:46:56.575Z,97466.09
2022-09-15T15:49:29.328Z,97459.16
2022-09-15T15:51:57.267Z,97461.97
2022-09-15T15:54:25.148Z,97462.19
2022-09-15T15:56:53.077Z,97465.97
2022-09-15T15:59:20.216Z,97462.16
2022-09-15T16:01:51.129Z,97469.75
2022-09-15T16:04:17.580Z,97462.78
2022-09-15T16:06:44.846Z,97469.78
2022-09-15T16:09:14.651Z,97465.28
2022-09-15T16:11:42.721Z,97470.00
2022-09-15T16:14:12.140Z,97463.22
2022-09-15T16:16:38.571Z,97466.06
2022-09-15T16:19:05.019Z,97471.47
2022-09-15T16:21:37.138Z,97472.13
2022-09-15T16:24:11.675Z,97476.72
2022-09-15T16:26:39.300Z,97482.97
2022-09-15T16:29:05.990Z,97479.97
2022-09-15T16:31:33.583Z,97483.00
2022-09-15T16:34:00.286Z,97492.25
2022-09-15T16:36:26.825Z,97491.09
2022-09-15T16:38:53.657Z,97496.53
2022-09-15T16:41:25.554Z,97507.91
2022-09-15T16:43:53.412Z,97508.41
2022-09-15T16:46:20.246Z,97507.75
2022-09-15T16:48:49.228Z,97514.13
2022-09-15T16:51:27.927Z,97521.69
2022-09-15T16:53:57.267Z,97516.44
2022-09-15T16:56:27.040Z,97513.00
2022-09-15T16:58:58.909Z,97517.13
2022-09-15T17:01:26.278Z,97514.91
2022-09-15T17:03:52.726Z,97518.19
2022-09-15T17:06:19.153Z,97522.25
2022-09-15T17:08:45.795Z,97525.00
2022-09-15T17:11:16.709Z,97534.47
2022-09-15T17:13:44.054Z,97535.41
2022-09-15T17:16:12.035Z,97541.75
2022-09-15T17:18:38.410Z,97536.75
2022-09-15T17:21:05.066Z,97541.19
2022-09-15T17:23:35.395Z,97549.06
2022-09-15T17:26:04.829Z,97551.19
2022-09-15T17:28:33.687Z,97551.66
2022-09-15T17:31:02.411Z,97554.25
2022-09-15T17:33:33.029Z,97553.72
2022-09-15T17:36:00.264Z,97557.63
2022-09-15T17:38:27.117Z,97557.91
2022-09-15T17:40:57.349Z,97555.59
2022-09-15T17:43:26.510Z,97551.34
2022-09-15T17:45:53.875Z,97550.47
2022-09-15T17:48:20.882Z,97554.03
2022-09-15T17:50:48.712Z,97554.03
2022-09-15T17:53:18.381Z,97549.03
2022-09-15T17:55:44.814Z,97550.31
2022-09-15T17:58:11.562Z,97557.44
2022-09-15T18:00:40.683Z,97555.13
2022-09-15T18:03:23.909Z,97558.81
2022-09-15T18:05:51.759Z,97561.53
2022-09-15T18:08:18.445Z,97562.38
2022-09-15T18:10:45.119Z,97573.69
2022-09-15T18:13:17.227Z,97567.00
2022-09-15T18:15:44.433Z,97578.28
2022-09-15T18:18:19.745Z,97567.28
2022-09-15T18:20:46.875Z,97571.63
2022-09-15T18:23:16.314Z,97554.47
2022-09-15T18:25:45.121Z,97557.06
2022-09-15T18:28:11.611Z,97575.59
2022-09-15T18:30:41.256Z,97571.69
2022-09-15T18:33:13.891Z,97585.88
2022-09-15T18:35:41.245Z,97587.78
2022-09-15T18:38:08.619Z,97593.81
2022-09-15T18:40:35.218Z,97607.53
2022-09-15T18:43:01.633Z,97605.22
2022-09-15T18:45:28.303Z,97597.59
2022-09-15T18:47:55.142Z,97599.53
2022-09-15T18:50:25.139Z,97599.88
2022-09-15T18:52:51.589Z,97604.34
2022-09-15T18:55:22.083Z,97603.72
2022-09-15T18:57:49.091Z,97610.75
2022-09-15T19:00:19.053Z,97607.66
2022-09-15T19:02:46.093Z,97612.19
2022-09-15T19:05:18.517Z,97614.63
2022-09-15T19:07:45.403Z,97615.63
2022-09-15T19:10:14.021Z,97612.47
2022-09-15T19:12:40.863Z,97610.31
2022-09-15T19:15:11.992Z,97610.44
2022-09-15T19:17:39.348Z,97614.97
2022-09-15T19:20:08.468Z,97615.50
2022-09-15T19:22:35.412Z,97610.50
2022-09-15T19:25:02.170Z,97603.28
2022-09-15T19:27:28.680Z,97601.75
2022-09-15T19:29:55.294Z,97604.88
2022-09-15T19:32:22.516Z,97605.84
2022-09-15T19:34:49.617Z,97603.59
2022-09-15T19:37:19.668Z,97607.03
2022-09-15T19:39:47.140Z,97606.63
2022-09-15T19:44:45.932Z,97604.28
2022-09-15T19:47:12.333Z,97607.88
2022-09-15T19:49:38.764Z,97598.44
2022-09-15T19:52:06.417Z,97605.31
2022-09-15T19:54:34.443Z,97605.13
2022-09-15T19:57:01.693Z,97611.06
2022-09-15T19:59:31.311Z,97616.50
2022-09-15T20:01:59.537Z,97616.56
2022-09-15T20:04:26.575Z,97613.97
2022-09-15T20:06:53.101Z,97634.72
2022-09-15T20:09:19.531Z,97631.38
2022-09-15T20:11:46.074Z,97628.88
2022-09-15T20:14:12.530Z,97632.13
2022-09-15T20:16:39.280Z,97629.53
2022-09-15T20:19:06.481Z,97634.63
2022-09-15T20:21:51.581Z,97631.28
2022-09-15T20:24:19.680Z,97637.31
2022-09-15T20:26:46.240Z,97636.69
2022-09-15T20:29:13.143Z,97644.63
2022-09-15T20:31:40.484Z,97645.50
2022-09-15T20:34:06.869Z,97647.22
2022-09-15T20:36:36.411Z,97642.75
2022-09-15T20:39:05.117Z,97648.75
2022-09-15T20:41:35.008Z,97638.38
2022-09-15T20:44:04.996Z,97639.00
2022-09-15T20:46:34.733Z,97650.34
2022-09-15T20:49:01.576Z,97646.06
2022-09-15T20:51:31.563Z,97645.25
2022-09-15T20:53:59.945Z,97640.88
2022-09-15T20:56:27.627Z,97642.91
2022-09-15T20:58:55.006Z,97636.69
2022-09-15T21:01:24.757Z,97633.38
2022-09-15T21:03:51.720Z,97638.47
2022-09-15T21:06:20.978Z,97635.13
2022-09-15T21:08:57.709Z,97630.03
2022-09-15T21:11:27.025Z,97637.88
2022-09-15T21:13:53.916Z,97633.38
2022-09-15T21:16:22.333Z,97640.31
2022-09-15T21:18:50.072Z,97647.16
2022-09-15T21:21:28.294Z,97642.06
2022-09-15T21:23:58.573Z,97644.63
2022-09-15T21:26:27.631Z,97642.06
2022-09-15T21:28:56.004Z,97648.09
2022-09-15T21:31:29.987Z,97652.41
2022-09-15T21:33:57.443Z,97653.34
2022-09-15T21:36:29.696Z,97647.16
2022-09-15T21:38:58.351Z,97653.28
2022-09-15T21:41:27.285Z,97655.84
2022-09-15T21:43:55.138Z,97661.78
2022-09-15T21:46:24.164Z,97662.63
2022-09-15T21:48:50.836Z,97661.53
2022-09-15T21:51:23.535Z,97654.00
2022-09-15T21:53:52.404Z,97649.06
2022-09-15T21:56:19.348Z,97649.81
2022-09-15T21:58:45.731Z,97648.25
2022-09-15T22:01:19.220Z,97641.47
2022-09-15T22:03:54.100Z,97641.63
2022-09-15T22:06:22.172Z,97639.38
2022-09-15T22:08:48.727Z,97645.38
2022-09-15T22:11:15.381Z,97654.16
2022-09-15T22:13:43.801Z,97657.81
2022-09-15T22:16:18.902Z,97658.75
2022-09-15T22:18:46.032Z,97663.94
2022-09-15T22:21:21.203Z,97661.41
2022-09-15T22:23:49.255Z,97667.44
2022-09-15T22:26:21.494Z,97659.56
2022-09-15T22:28:48.674Z,97663.94
2022-09-15T22:31:16.869Z,97669.09
2022-09-15T22:33:44.422Z,97668.34
2022-09-15T22:36:16.298Z,97665.66
2022-09-15T22:38:43.243Z,97670.00
2022-09-15T22:41:12.577Z,97666.59
2022-09-15T22:43:39.992Z,97670.91
2022-09-15T22:46:07.176Z,97672.59
2022-09-15T22:48:34.004Z,97664.84
2022-09-15T22:51:00.623Z,97663.94
2022-09-15T22:53:27.357Z,97666.59
2022-09-15T22:56:07.314Z,97663.16
2022-09-15T22:58:35.578Z,97667.59
2022-09-15T23:01:13.463Z,97669.41
2022-09-15T23:03:40.615Z,97661.78
2022-09-15T23:06:07.854Z,97664.47
2022-09-15T23:08:35.104Z,97665.31
2022-09-15T23:11:14.291Z,97668.81
2022-09-15T23:13:41.779Z,97667.06
2022-09-15T23:16:08.977Z,97677.13
2022-09-15T23:18:36.000Z,97681.44
2022-09-15T23:21:07.299Z,97681.44
2022-09-15T23:23:35.931Z,97687.47
2022-09-15T23:26:03.906Z,97689.06
2022-09-15T23:28:31.371Z,97694.06
2022-09-15T23:30:58.893Z,97688.16
2022-09-15T23:33:26.923Z,97683.03
2022-09-15T23:35:54.115Z,97678.84
2022-09-15T23:38:21.958Z,97686.78
2022-09-15T23:40:50.458Z,97677.94
2022-09-15T23:43:17.462Z,97675.53
2022-09-15T23:45:45.370Z,97678.09
2022-09-15T23:48:12.806Z,97672.00
2022-09-15T23:50:40.055Z,97663.56
2022-09-15T23:53:06.862Z,97661.88
2022-09-15T23:55:33.625Z,97656.69
2022-09-15T23:58:00.546Z,97655.72
